Time;durP1;ratioP1;P1;durP2;ratioP2;P2;SDS_P1;SDS_P2;PMS_P1;PMS_P2;Temp;Humidity;BMP_temperature;BMP_pressure;BME280_temperature;BME280_humidity;BME280_pressure;Samples;Min_cycle;Max_cycle;Signal;HPM_P1;HPM_P2
2023/09/13 00:00:37;;;;;;;4.57;3.05;;;;;;;18.87;99.45;100273.41;4918173;29;20102;-68
2023/09/13 00:03:41;;;;;;;4.65;2.80;;;;;;;18.96;99.75;100274.38;4919289;29;20080;-68
2023/09/13 00:06:44;;;;;;;6.22;2.47;;;;;;;18.97;99.11;100282.19;4916705;29;20497;-68
2023/09/13 00:10:13;;;;;;;6.22;2.33;;;;;;;18.93;99.00;100290.56;4905807;29;20051;-68
2023/09/13 00:13:17;;;;;;;4.65;2.63;;;;;;;18.89;98.74;100299.75;4917654;29;20103;-69
2023/09/13 00:16:22;;;;;;;4.97;2.40;;;;;;;18.87;99.34;100299.06;4907012;29;20119;-68
2023/09/13 00:19:30;;;;;;;5.32;2.25;;;;;;;18.88;99.48;100303.38;4916966;29;20143;-68
2023/09/13 00:22:49;;;;;;;3.85;2.40;;;;;;;18.81;99.92;100298.63;4906556;29;20055;-68
2023/09/13 00:25:53;;;;;;;6.80;3.10;;;;;;;18.85;100.00;100298.34;4918124;29;20139;-68
2023/09/13 00:28:57;;;;;;;8.27;3.38;;;;;;;18.84;100.00;100297.53;4918322;29;20096;-68
2023/09/13 00:32:01;;;;;;;10.70;3.80;;;;;;;18.80;100.00;100304.91;4918631;29;20043;-68
2023/09/13 00:35:05;;;;;;;12.77;4.13;;;;;;;18.69;100.00;100306.81;4900095;29;20103;-68
2023/09/13 00:38:08;;;;;;;8.18;3.15;;;;;;;18.61;100.00;100311.97;4900652;29;20059;-68
2023/09/13 00:41:11;;;;;;;5.57;3.40;;;;;;;18.54;100.00;100311.69;4900545;29;20632;-68
2023/09/13 00:44:14;;;;;;;5.82;3.28;;;;;;;18.69;100.00;100309.47;4900457;29;20061;-69
2023/09/13 00:47:18;;;;;;;6.85;3.35;;;;;;;18.79;100.00;100305.91;4888865;29;20608;-69
2023/09/13 00:50:21;;;;;;;5.28;3.28;;;;;;;18.86;100.00;100300.00;4900561;29;20047;-68
2023/09/13 00:53:26;;;;;;;9.63;3.33;;;;;;;18.92;100.00;100308.28;4900260;29;20124;-68
2023/09/13 00:56:32;;;;;;;7.15;3.50;;;;;;;18.89;100.00;100303.25;4888693;29;20043;-68
2023/09/13 00:59:35;;;;;;;4.20;2.88;;;;;;;18.88;100.00;100303.38;4900452;29;20054;-68
2023/09/13 01:02:40;;;;;;;8.43;3.42;;;;;;;18.82;100.00;100307.41;4900014;29;20051;-68
2023/09/13 01:05:44;;;;;;;8.02;3.33;;;;;;;18.83;100.00;100308.28;4900458;29;20115;-68
2023/09/13 01:08:47;;;;;;;12.52;2.65;;;;;;;18.85;100.00;100314.25;4899168;29;20100;-68
2023/09/13 01:11:51;;;;;;;7.57;3.67;;;;;;;18.78;100.00;100309.50;4887935;29;20063;-68
2023/09/13 01:14:54;;;;;;;7.90;4.15;;;;;;;18.67;100.00;100312.25;4888052;29;20079;-68
2023/09/13 01:18:02;;;;;;;9.05;3.88;;;;;;;18.62;100.00;100309.19;4899435;29;20483;-69
2023/09/13 01:21:36;;;;;;;7.20;3.65;;;;;;;18.55;100.00;100313.34;4899866;29;20052;-68
2023/09/13 01:25:09;;;;;;;7.88;3.70;;;;;;;18.55;100.00;100322.13;4894288;29;20048;-69
2023/09/13 01:28:22;;;;;;;;;;;;;;;18.53;100.00;100317.94;4900080;29;20035;-68
2023/09/13 01:31:27;;;;;;;7.13;4.25;;;;;;;18.61;100.00;100326.06;4899707;29;20415;-68
2023/09/13 01:34:31;;;;;;;8.75;3.42;;;;;;;18.65;100.00;100329.25;4899720;29;20403;-68
2023/09/13 01:37:34;;;;;;;11.98;4.88;;;;;;;18.53;100.00;100332.00;4887960;29;20052;-68
2023/09/13 01:40:41;;;;;;;7.93;3.95;;;;;;;18.56;100.00;100346.78;4899298;29;20108;-68
2023/09/13 01:43:45;;;;;;;7.65;4.20;;;;;;;18.43;100.00;100341.75;4887846;29;20060;-68
2023/09/13 01:46:50;;;;;;;12.52;4.95;;;;;;;18.52;100.00;100342.75;4887770;29;20052;-68
2023/09/13 01:49:55;;;;;;;7.80;4.85;;;;;;;18.48;100.00;100344.00;4899496;29;20039;-68
2023/09/13 01:53:03;;;;;;;14.90;4.05;;;;;;;18.47;100.00;100343.13;4899426;29;20055;-68
2023/09/13 01:56:06;;;;;;;9.50;3.55;;;;;;;18.53;100.00;100342.59;4899277;29;20077;-68
2023/09/13 01:59:09;;;;;;;9.00;4.53;;;;;;;18.50;100.00;100349.97;4887545;29;20123;-68
2023/09/13 02:02:13;;;;;;;7.82;4.30;;;;;;;18.48;100.00;100349.28;4899205;29;20468;-68
2023/09/13 02:05:16;;;;;;;7.20;3.47;;;;;;;18.51;100.00;100349.84;4899156;29;20072;-68
2023/09/13 02:08:20;;;;;;;6.95;3.60;;;;;;;18.51;100.00;100355.16;4887571;29;20096;-68
2023/09/13 02:11:24;;;;;;;9.45;4.00;;;;;;;18.47;100.00;100352.91;4899022;29;20048;-68
2023/09/13 02:14:28;;;;;;;11.13;3.92;;;;;;;18.45;100.00;100344.28;4897859;29;20119;-68
2023/09/13 02:17:32;;;;;;;7.82;3.63;;;;;;;18.44;100.00;100345.22;4887323;29;20095;-68
2023/09/13 02:20:35;;;;;;;8.95;3.55;;;;;;;18.47;100.00;100347.59;4898698;29;20047;-68
2023/09/13 02:23:41;;;;;;;12.13;3.55;;;;;;;18.49;100.00;100343.84;4898780;29;20143;-69
2023/09/13 02:26:45;;;;;;;8.55;3.65;;;;;;;18.51;100.00;100338.44;4898948;29;20108;-69
2023/09/13 02:29:51;;;;;;;6.32;3.47;;;;;;;18.49;100.00;100335.06;4886968;29;20039;-68
2023/09/13 02:32:54;;;;;;;5.20;2.92;;;;;;;18.42;100.00;100336.59;4898648;29;20068;-68
2023/09/13 02:35:57;;;;;;;9.13;3.38;;;;;;;18.49;100.00;100350.97;4887192;29;20127;-68
2023/09/13 02:39:01;;;;;;;10.05;2.75;;;;;;;18.45;100.00;100357.50;4898533;29;20048;-68
2023/09/13 02:42:06;;;;;;;11.88;3.78;;;;;;;18.46;100.00;100356.53;4886724;29;20579;-68
2023/09/13 02:45:10;;;;;;;9.38;2.70;;;;;;;18.48;100.00;100354.59;4898652;29;20060;-68
2023/09/13 02:48:13;;;;;;;12.57;3.05;;;;;;;18.44;100.00;100356.69;4898390;29;20103;-68
2023/09/13 02:51:16;;;;;;;10.90;2.90;;;;;;;18.42;100.00;100360.44;4886623;29;20079;-68
2023/09/13 02:54:20;;;;;;;10.38;3.72;;;;;;;18.33;100.00;100362.88;4898342;29;20127;-68
2023/09/13 02:57:23;;;;;;;10.45;3.10;;;;;;;18.42;100.00;100365.72;4886562;29;20104;-68
2023/09/13 03:00:26;;;;;;;8.77;3.22;;;;;;;18.35;100.00;100362.78;4886157;29;20128;-68
2023/09/13 03:03:31;;;;;;;7.47;3.15;;;;;;;18.32;100.00;100361.22;4898302;29;20071;-68
2023/09/13 03:06:35;;;;;;;14.20;3.72;;;;;;;18.18;100.00;100347.50;4898030;29;20051;-75
2023/09/13 03:09:38;;;;;;;10.35;3.92;;;;;;;18.13;100.00;100355.84;4897953;29;20051;-74
2023/09/13 03:12:42;;;;;;;6.45;3.50;;;;;;;18.10;100.00;100361.41;4886455;29;20143;-74
2023/09/13 03:15:45;;;;;;;6.00;3.92;;;;;;;18.19;100.00;100359.75;4886206;29;20067;-75
2023/09/13 03:18:50;;;;;;;6.60;4.07;;;;;;;18.01;100.00;100348.97;4897767;29;20590;-74
2023/09/13 03:21:57;;;;;;;7.80;4.15;;;;;;;18.08;100.00;100348.31;4896891;29;20075;-75
2023/09/13 03:25:01;;;;;;;6.93;4.30;;;;;;;18.04;100.00;100348.72;4897408;29;20055;-75
2023/09/13 03:28:04;;;;;;;4.97;3.55;;;;;;;18.06;100.00;100344.97;4875700;29;20095;-75
2023/09/13 03:31:12;;;;;;;12.63;3.92;;;;;;;18.05;100.00;100353.03;4886093;29;20108;-75
2023/09/13 03:34:16;;;;;;;10.95;4.95;;;;;;;17.96;100.00;100348.53;4898041;29;20510;-75
2023/09/13 03:37:19;;;;;;;5.97;3.55;;;;;;;18.00;100.00;100352.59;4886218;29;20107;-74
2023/09/13 03:40:23;;;;;;;10.10;3.85;;;;;;;18.15;100.00;100347.78;4904499;29;20062;-74
2023/09/13 03:43:27;;;;;;;8.88;3.50;;;;;;;18.07;100.00;100356.38;4904791;29;20593;-74
2023/09/13 03:46:30;;;;;;;9.23;3.55;;;;;;;18.01;100.00;100356.91;4904761;29;20102;-71
2023/09/13 03:49:36;;;;;;;9.15;3.42;;;;;;;18.04;100.00;100359.31;4916445;29;20050;-74
2023/09/13 03:52:40;;;;;;;4.68;3.30;;;;;;;18.05;100.00;100363.59;4904767;29;20078;-71
2023/09/13 03:55:44;;;;;;;7.60;3.47;;;;;;;18.12;100.00;100362.09;4904624;29;20042;-69
2023/09/13 03:58:48;;;;;;;9.75;3.38;;;;;;;18.25;100.00;100360.09;4904672;29;20422;-73
2023/09/13 04:01:52;;;;;;;9.98;3.78;;;;;;;18.30;100.00;100349.94;4904646;29;20051;-71
2023/09/13 04:04:55;;;;;;;7.32;3.28;;;;;;;18.29;100.00;100350.91;4904638;29;20051;-72
2023/09/13 04:07:58;;;;;;;8.52;3.60;;;;;;;18.28;100.00;100351.88;4916313;29;20059;-71
2023/09/13 04:11:02;;;;;;;5.57;3.28;;;;;;;18.21;100.00;100348.06;4904512;29;20451;-67
2023/09/13 04:14:07;;;;;;;8.60;3.40;;;;;;;18.31;100.00;100348.97;4904624;29;20051;-72
2023/09/13 04:17:10;;;;;;;7.47;3.25;;;;;;;18.35;100.00;100345.06;4904454;29;20121;-68
2023/09/13 04:20:13;;;;;;;6.22;2.80;;;;;;;18.42;100.00;100348.03;4915941;29;20582;-68
2023/09/13 04:23:17;;;;;;;6.97;2.83;;;;;;;18.40;100.00;100352.59;4904392;29;20514;-71
2023/09/13 04:26:23;;;;;;;6.05;2.95;;;;;;;18.38;100.00;100359.00;4893899;29;20058;-67
2023/09/13 04:29:28;;;;;;;8.77;3.20;;;;;;;18.36;100.00;100367.09;4904453;29;20406;-69
2023/09/13 04:32:33;;;;;;;10.45;3.40;;;;;;;18.33;100.00;100362.88;4916135;29;20070;-69
2023/09/13 04:35:37;;;;;;;10.57;2.97;;;;;;;18.35;100.00;100363.59;4915965;29;20047;-69
2023/09/13 04:38:40;;;;;;;6.35;2.55;;;;;;;18.38;100.00;100372.22;4919485;29;20114;-69
2023/09/13 04:41:44;;;;;;;5.47;2.65;;;;;;;18.41;100.00;100374.59;4907803;29;20067;-68
2023/09/13 04:45:03;;;;;;;5.40;3.00;;;;;;;18.46;100.00;100377.72;4907685;29;20068;-68
2023/09/13 04:48:07;;;;;;;12.60;4.03;;;;;;;18.44;100.00;100379.63;4899585;29;20115;-68
2023/09/13 04:51:11;;;;;;;8.25;3.03;;;;;;;18.35;100.00;100384.78;4900352;29;20052;-68
2023/09/13 04:54:15;;;;;;;9.30;3.10;;;;;;;18.34;100.00;100384.91;4906843;29;20111;-68
2023/09/13 04:57:19;;;;;;;8.30;2.72;;;;;;;18.33;100.00;100384.06;4907453;29;20079;-68
2023/09/13 05:00:24;;;;;;;9.63;3.65;;;;;;;18.37;100.00;100387.28;4907238;29;20084;-68
2023/09/13 05:03:27;;;;;;;13.32;3.28;;;;;;;18.36;100.00;100389.09;4917296;29;20176;-66
2023/09/13 05:06:32;;;;;;;10.13;3.10;;;;;;;18.35;100.00;100398.03;4917511;29;20132;-67
2023/09/13 05:09:37;;;;;;;8.50;3.03;;;;;;;18.35;100.00;100403.31;4917387;29;20410;-67
2023/09/13 05:12:40;;;;;;;7.15;3.20;;;;;;;18.33;100.00;100397.31;4905638;29;20059;-67
2023/09/13 05:15:46;;;;;;;10.25;3.17;;;;;;;18.40;100.00;100407.34;4916929;29;20056;-66
2023/09/13 05:18:51;;;;;;;11.73;3.22;;;;;;;18.39;100.00;100408.34;4917081;29;20067;-67
2023/09/13 05:21:57;;;;;;;8.43;3.08;;;;;;;18.40;100.00;100410.00;4916989;29;20398;-67
2023/09/13 05:25:00;;;;;;;8.38;3.70;;;;;;;18.40;100.00;100412.66;4917067;29;20047;-68
2023/09/13 05:28:04;;;;;;;9.63;5.07;;;;;;;18.28;100.00;100422.47;4917200;29;20574;-67
2023/09/13 05:31:07;;;;;;;11.38;3.90;;;;;;;18.25;100.00;100428.03;4917034;29;20065;-69
2023/09/13 05:34:11;;;;;;;8.57;3.92;;;;;;;18.30;100.00;100431.97;4916575;29;20161;-69
2023/09/13 05:37:14;;;;;;;9.23;3.97;;;;;;;17.94;100.00;100433.31;4916525;29;20087;-69
2023/09/13 05:40:19;;;;;;;6.22;4.00;;;;;;;18.04;100.00;100428.09;4916517;29;20099;-68
2023/09/13 05:43:23;;;;;;;6.82;4.13;;;;;;;18.07;100.00;100438.41;4916986;29;20051;-68
2023/09/13 05:46:26;;;;;;;9.00;4.22;;;;;;;18.02;100.00;100445.88;4916879;29;20046;-68
2023/09/13 05:49:29;;;;;;;11.77;3.63;;;;;;;18.07;100.00;100438.41;4915649;29;20062;-70
2023/09/13 05:52:33;;;;;;;8.48;3.33;;;;;;;18.15;100.00;100445.69;4916839;29;20107;-69
2023/09/13 05:55:37;;;;;;;8.50;3.28;;;;;;;18.07;100.00;100443.69;4916998;29;20064;-67
2023/09/13 05:58:43;;;;;;;5.65;2.58;;;;;;;18.23;100.00;100441.41;4916812;29;20127;-67
2023/09/13 06:01:46;;;;;;;8.73;3.22;;;;;;;18.28;100.00;100441.00;4916517;29;20108;-70
2023/09/13 06:04:50;;;;;;;8.77;3.17;;;;;;;18.15;100.00;100443.03;4915351;29;20074;-67
2023/09/13 06:07:53;;;;;;;6.60;3.58;;;;;;;18.01;100.00;100450.34;4915970;29;20078;-67
2023/09/13 06:10:57;;;;;;;7.03;3.63;;;;;;;18.09;100.00;100450.56;4915525;29;20114;-67
2023/09/13 06:14:06;;;;;;;9.05;3.17;;;;;;;18.34;100.00;100451.91;4913141;29;20078;-67
2023/09/13 06:17:09;;;;;;;9.45;3.10;;;;;;;18.51;100.00;100447.00;4914649;29;20047;-67
2023/09/13 06:20:15;;;;;;;11.95;3.53;;;;;;;18.66;100.00;100450.94;4914729;29;20062;-68
2023/09/13 06:23:40;;;;;;;13.25;4.30;;;;;;;18.47;100.00;100469.38;4914691;29;20047;-68
2023/09/13 06:26:44;;;;;;;5.55;3.22;;;;;;;18.62;100.00;100468.06;4913779;29;20042;-68
2023/09/13 06:29:48;;;;;;;8.95;4.25;;;;;;;18.73;100.00;100460.06;4911853;29;20039;-68
2023/09/13 06:32:53;;;;;;;5.95;3.80;;;;;;;18.66;100.00;100473.94;4911897;29;20063;-68
2023/09/13 06:35:57;;;;;;;7.72;3.13;;;;;;;18.79;100.00;100469.25;4902940;29;20075;-68
2023/09/13 06:39:00;;;;;;;15.05;3.80;;;;;;;18.88;100.00;100468.47;4915667;29;20486;-68
2023/09/13 06:42:04;;;;;;;6.65;3.28;;;;;;;18.94;100.00;100469.75;4903454;29;20071;-68
2023/09/13 06:45:08;;;;;;;5.75;3.15;;;;;;;19.01;100.00;100477.00;4915485;29;20107;-69
2023/09/13 06:48:12;;;;;;;11.23;3.33;;;;;;;19.01;100.00;100478.81;4903643;29;20103;-68
2023/09/13 06:51:15;;;;;;;6.97;3.75;;;;;;;18.78;100.00;100481.69;4915576;29;20537;-68
2023/09/13 06:54:18;;;;;;;6.72;3.42;;;;;;;18.87;100.00;100488.00;4915389;29;20051;-68
2023/09/13 06:57:21;;;;;;;7.68;4.10;;;;;;;18.99;100.00;100494.03;4915536;29;20180;-68
2023/09/13 07:00:25;;;;;;;8.80;3.53;;;;;;;19.13;100.00;100493.63;4914174;29;20059;-68
2023/09/13 07:03:28;;;;;;;5.50;3.35;;;;;;;19.10;100.00;100499.19;4914642;29;20061;-65
2023/09/13 07:06:32;;;;;;;8.18;3.85;;;;;;;18.99;100.00;100500.16;4915374;29;20070;-65
2023/09/13 07:09:35;;;;;;;5.80;3.58;;;;;;;19.01;100.00;100500.84;4915305;29;20598;-65
2023/09/13 07:12:40;;;;;;;5.68;3.53;;;;;;;19.15;100.00;100507.59;4915255;29;20154;-66
2023/09/13 07:15:43;;;;;;;11.63;3.40;;;;;;;19.26;100.00;100504.81;4903458;29;20514;-65
2023/09/13 07:18:47;;;;;;;6.55;3.85;;;;;;;19.31;100.00;100500.94;4915170;29;20067;-68
2023/09/13 07:21:50;;;;;;;5.10;3.60;;;;;;;19.37;100.00;100505.66;4915407;29;20087;-66
2023/09/13 07:24:53;;;;;;;10.48;5.10;;;;;;;19.23;100.00;100517.50;4915284;29;20055;-65
2023/09/13 07:27:57;;;;;;;5.85;4.95;;;;;;;19.51;100.00;100514.06;4915097;29;20058;-66
2023/09/13 07:31:06;;;;;;;9.68;5.32;;;;;;;19.47;100.00;100517.16;4915417;29;20055;-66
2023/09/13 07:34:09;;;;;;;7.47;5.05;;;;;;;19.37;98.42;100521.56;4914594;29;20103;-65
2023/09/13 07:37:13;;;;;;;13.68;5.75;;;;;;;19.42;100.00;100525.50;4914863;29;20070;-67
2023/09/13 07:40:16;;;;;;;7.68;5.25;;;;;;;19.43;98.82;100532.50;4914727;29;20063;-68
2023/09/13 07:43:19;;;;;;;10.32;6.60;;;;;;;19.46;99.28;100526.91;4914677;29;20047;-65
2023/09/13 07:46:23;;;;;;;8.00;5.38;;;;;;;19.52;99.14;100536.94;4914875;29;20187;-67
2023/09/13 07:49:27;;;;;;;7.80;5.57;;;;;;;19.50;99.71;100543.38;4914719;29;20144;-67
2023/09/13 07:52:30;;;;;;;8.25;5.40;;;;;;;19.54;100.00;100544.78;4914717;29;20043;-67
2023/09/13 07:55:34;;;;;;;8.10;5.32;;;;;;;19.57;100.00;100544.50;4914921;29;20047;-67
2023/09/13 07:58:44;;;;;;;11.75;6.00;;;;;;;19.56;100.00;100558.75;4914579;29;20046;-68
2023/09/13 08:01:48;;;;;;;9.77;5.88;;;;;;;19.65;100.00;100552.63;4914008;29;20108;-68
2023/09/13 08:04:51;;;;;;;7.45;4.97;;;;;;;19.70;100.00;100550.41;4912212;29;20051;-67
2023/09/13 08:07:56;;;;;;;9.93;5.20;;;;;;;19.65;100.00;100555.28;4912360;29;20154;-67
2023/09/13 08:11:00;;;;;;;13.57;4.63;;;;;;;19.72;100.00;100569.69;4900690;29;20111;-67
2023/09/13 08:14:04;;;;;;;7.32;4.65;;;;;;;19.89;100.00;100573.47;4918418;29;20450;-67
2023/09/13 08:17:07;;;;;;;6.63;5.03;;;;;;;19.89;100.00;100575.28;4915393;29;20060;-76
2023/09/13 08:20:11;;;;;;;10.15;4.95;;;;;;;19.95;97.74;100569.44;4918073;29;20180;-67
2023/09/13 08:23:14;;;;;;;7.07;4.45;;;;;;;19.84;93.26;100566.91;4918217;29;20055;-64
2023/09/13 08:26:17;;;;;;;7.30;4.32;;;;;;;19.94;93.11;100581.00;4918137;29;20039;-68
2023/09/13 08:29:21;;;;;;;10.80;4.75;;;;;;;19.76;91.58;100580.03;4918352;29;20463;-67
2023/09/13 08:32:28;;;;;;;7.38;4.47;;;;;;;19.92;90.99;100585.63;4918479;29;20087;-67
2023/09/13 08:35:31;;;;;;;7.50;4.35;;;;;;;19.93;87.08;100596.09;4918094;29;20047;-67
2023/09/13 08:38:34;;;;;;;8.63;3.85;;;;;;;20.02;85.89;100601.56;4916239;29;20444;-69
2023/09/13 08:41:39;;;;;;;5.82;3.88;;;;;;;20.10;86.78;100594.56;4916992;29;20501;-66
2023/09/13 08:44:47;;;;;;;6.50;4.10;;;;;;;20.20;86.65;100605.19;4917346;29;20055;-66
2023/09/13 08:47:53;;;;;;;5.88;4.32;;;;;;;20.25;89.39;100612.72;4917844;29;20075;-66
2023/09/13 08:50:57;;;;;;;9.02;4.05;;;;;;;20.10;85.98;100623.78;4917384;29;20055;-66
2023/09/13 08:54:03;;;;;;;6.50;4.22;;;;;;;19.95;87.58;100625.16;4917689;29;20059;-68
2023/09/13 08:57:06;;;;;;;7.28;3.63;;;;;;;20.06;88.33;100622.34;4917712;29;20059;-67
2023/09/13 09:00:09;;;;;;;6.47;4.28;;;;;;;20.19;85.09;100622.06;4917590;29;20367;-67
2023/09/13 09:03:16;;;;;;;6.53;4.00;;;;;;;20.32;82.91;100624.44;4917673;29;20107;-67
2023/09/13 09:06:20;;;;;;;8.38;4.97;;;;;;;20.40;81.61;100627.25;4917761;29;20139;-67
2023/09/13 09:09:31;;;;;;;7.53;5.63;;;;;;;20.31;81.41;100634.25;4917322;29;20366;-68
2023/09/13 09:12:37;;;;;;;6.55;5.10;;;;;;;20.27;84.77;100637.31;4905653;29;20110;-67
2023/09/13 09:15:41;;;;;;;8.07;5.38;;;;;;;20.28;82.04;100639.00;4906206;29;20463;-66
2023/09/13 09:19:05;;;;;;;10.32;5.90;;;;;;;20.25;81.37;100633.97;4917255;29;20589;-67
2023/09/13 09:22:41;;;;;;;9.90;5.45;;;;;;;20.40;82.24;100643.19;4908562;29;20092;-67
2023/09/13 09:26:09;;;;;;;9.50;5.65;;;;;;;20.36;79.47;100637.31;4916072;29;20047;-65
2023/09/13 09:29:42;;;;;;;8.95;5.85;;;;;;;20.51;79.66;100643.06;4894287;29;20063;-66
2023/09/13 09:33:45;;;;;;;9.60;5.05;;;;;;;20.64;79.88;100630.34;4915625;29;20122;-66
2023/09/13 09:36:49;;;;;;;8.07;5.93;;;;;;;20.68;79.70;100633.53;4916455;29;20410;-65
2023/09/13 09:39:53;;;;;;;7.38;4.80;;;;;;;20.84;79.33;100627.63;4916256;29;20518;-64
2023/09/13 09:42:57;;;;;;;6.63;4.90;;;;;;;21.02;79.35;100623.22;4916425;29;20051;-65
2023/09/13 09:46:06;;;;;;;7.85;4.93;;;;;;;20.89;75.03;100622.69;4916409;29;20178;-66
2023/09/13 09:49:19;;;;;;;7.93;4.28;;;;;;;20.92;73.91;100621.59;4915786;29;20111;-66
2023/09/13 09:52:24;;;;;;;6.13;3.90;;;;;;;20.79;75.01;100616.59;4916147;29;20399;-67
2023/09/13 09:55:30;;;;;;;7.07;4.28;;;;;;;20.93;75.70;100618.78;4916134;29;20471;-66
2023/09/13 09:58:40;;;;;;;7.22;4.53;;;;;;;21.24;77.54;100627.31;4905088;29;20047;-67
2023/09/13 10:01:46;;;;;;;6.45;4.30;;;;;;;21.21;74.35;100634.75;4916455;29;20571;-67
2023/09/13 10:04:53;;;;;;;5.32;3.50;;;;;;;21.25;75.69;100638.78;4916138;29;20055;-65
2023/09/13 10:08:01;;;;;;;6.32;3.63;;;;;;;21.39;73.93;100640.19;4915996;29;20043;-67
2023/09/13 10:11:07;;;;;;;6.18;3.70;;;;;;;21.27;73.56;100642.16;4915702;29;20532;-66
2023/09/13 10:14:25;;;;;;;5.10;3.63;;;;;;;21.24;73.95;100642.44;4915931;29;20106;-65
2023/09/13 10:17:29;;;;;;;5.68;3.30;;;;;;;21.19;73.63;100634.09;4915835;29;20538;-64
2023/09/13 10:20:34;;;;;;;6.78;3.13;;;;;;;21.34;72.42;100645.91;4858809;29;1699014;-67
2023/09/13 10:23:43;;;;;;;6.53;3.38;;;;;;;21.40;72.85;100649.84;4916063;29;20055;-70
2023/09/13 10:26:52;;;;;;;5.90;4.00;;;;;;;21.33;72.13;100652.22;4916395;29;20062;-66
2023/09/13 10:30:00;;;;;;;5.20;3.60;;;;;;;21.42;73.48;100646.06;4916107;29;20046;-69
2023/09/13 10:33:06;;;;;;;5.50;3.90;;;;;;;21.49;71.94;100647.13;4904468;29;20051;-67
2023/09/13 10:36:26;;;;;;;6.72;3.60;;;;;;;21.41;71.18;100647.03;4915527;29;20047;-67
2023/09/13 10:39:32;;;;;;;5.20;3.65;;;;;;;21.42;71.05;100656.69;4915713;29;20108;-66
2023/09/13 10:42:40;;;;;;;3.75;2.35;;;;;;;21.32;67.62;100631.94;4915678;29;20067;-66
2023/09/13 10:45:44;;;;;;;4.70;2.90;;;;;;;21.58;68.57;100645.41;4916159;29;20054;-68
2023/09/13 10:48:51;;;;;;;4.53;2.80;;;;;;;21.67;67.00;100654.34;4904184;29;20409;-64
2023/09/13 10:51:57;;;;;;;5.30;3.35;;;;;;;21.77;66.31;100655.09;4915490;29;20103;-65
2023/09/13 10:55:05;;;;;;;7.22;3.33;;;;;;;21.71;66.39;100651.22;4915556;29;20730;-64
2023/09/13 10:58:09;;;;;;;5.53;3.30;;;;;;;21.88;66.21;100656.72;4915651;29;20095;-69
2023/09/13 11:01:14;;;;;;;6.10;3.45;;;;;;;21.87;64.42;100649.72;4915164;29;20051;-66
2023/09/13 11:04:19;;;;;;;5.63;3.63;;;;;;;22.13;65.51;100652.47;4915383;29;20050;-68
2023/09/13 11:07:22;;;;;;;5.93;3.22;;;;;;;22.12;64.73;100648.16;4915654;29;20186;-71
2023/09/13 11:10:33;;;;;;;5.18;2.70;;;;;;;22.15;64.16;100647.84;4915545;29;20472;-76
2023/09/13 11:13:37;;;;;;;8.00;2.80;;;;;;;22.27;61.09;100646.63;4914792;29;20102;-74
2023/09/13 11:16:41;;;;;;;6.45;2.63;;;;;;;22.46;64.35;100651.81;4915481;29;20104;-73
2023/09/13 11:19:48;;;;;;;5.47;2.45;;;;;;;22.51;62.96;100649.50;4903595;29;20589;-67
2023/09/13 11:23:21;;;;;;;4.63;2.90;;;;;;;22.28;60.76;100658.97;4903995;29;20471;-71
2023/09/13 11:26:49;;;;;;;4.55;3.03;;;;;;;22.32;60.86;100665.66;4915286;29;20095;-69
2023/09/13 11:29:57;;;;;;;4.00;2.83;;;;;;;22.62;60.92;100660.91;4915473;29;20047;-68
2023/09/13 11:33:03;;;;;;;5.10;2.83;;;;;;;22.55;61.46;100660.69;4915785;29;20058;-66
2023/09/13 11:36:09;;;;;;;6.15;3.60;;;;;;;22.60;60.68;100669.06;4915678;29;20059;-67
2023/09/13 11:39:16;;;;;;;3.80;2.78;;;;;;;22.75;59.26;100664.84;4915447;29;20047;-70
2023/09/13 11:42:28;;;;;;;4.28;2.47;;;;;;;22.78;59.46;100671.69;4915390;29;20055;-69
2023/09/13 11:45:35;;;;;;;4.13;2.35;;;;;;;22.76;58.50;100671.00;4903868;29;20072;-69
2023/09/13 11:48:40;;;;;;;3.90;3.00;;;;;;;22.88;56.87;100672.44;4914730;29;20095;-68
2023/09/13 11:51:53;;;;;;;4.30;2.92;;;;;;;23.25;56.65;100668.66;4903152;29;20211;-74
2023/09/13 11:54:58;;;;;;;4.07;2.60;;;;;;;23.13;56.65;100675.28;4905698;29;20047;-70
2023/09/13 11:58:02;;;;;;;4.38;2.60;;;;;;;22.77;57.53;100675.34;4902524;29;20143;-73
2023/09/13 12:01:07;;;;;;;4.85;3.33;;;;;;;22.83;59.41;100680.06;4899508;29;20100;-72
2023/09/13 12:04:12;;;;;;;5.40;2.88;;;;;;;22.52;58.61;100683.16;4904848;29;20127;-73
2023/09/13 12:07:16;;;;;;;4.03;2.63;;;;;;;22.66;59.23;100683.59;4905874;29;20079;-72
2023/09/13 12:10:32;;;;;;;4.72;2.65;;;;;;;22.65;58.29;100687.25;4909829;29;20123;-69
2023/09/13 12:13:46;;;;;;;3.42;2.70;;;;;;;22.49;57.91;100694.13;4915106;29;20139;-70
2023/09/13 12:16:53;;;;;;;6.78;2.63;;;;;;;22.70;57.68;100687.63;4908822;29;20083;-75
2023/09/13 12:19:57;;;;;;;4.45;2.40;;;;;;;23.07;57.69;100689.22;4910784;29;20140;-69
2023/09/13 12:23:00;;;;;;;6.45;3.10;;;;;;;23.64;58.49;100678.84;4914796;29;20051;-70
2023/09/13 12:26:08;;;;;;;4.35;2.90;;;;;;;23.41;56.81;100671.41;4902799;29;20046;-70
2023/09/13 12:29:11;;;;;;;4.13;2.40;;;;;;;23.75;58.61;100675.94;4911669;29;20051;-71
2023/09/13 12:32:16;;;;;;;4.05;2.63;;;;;;;23.06;58.60;100666.22;4909978;29;20074;-71
2023/09/13 12:35:19;;;;;;;5.07;2.95;;;;;;;23.26;58.64;100670.38;4903274;29;20135;-67
2023/09/13 12:38:22;;;;;;;5.20;2.60;;;;;;;23.84;57.06;100666.94;4910179;29;20055;-68
2023/09/13 12:41:31;;;;;;;5.60;2.85;;;;;;;24.07;55.64;100669.00;4914263;29;20478;-68
2023/09/13 12:44:37;;;;;;;6.10;2.50;;;;;;;22.95;57.74;100672.69;4914319;29;20410;-68
2023/09/13 12:47:40;;;;;;;3.78;2.67;;;;;;;22.91;61.04;100677.47;4907295;29;20047;-68
2023/09/13 12:50:45;;;;;;;5.00;2.72;;;;;;;22.52;61.29;100676.97;4914626;29;20531;-69
2023/09/13 12:54:14;;;;;;;3.92;2.22;;;;;;;22.77;60.28;100679.84;4915200;29;20107;-69
2023/09/13 12:57:17;;;;;;;5.03;2.75;;;;;;;22.69;60.96;100673.47;4913309;29;20100;-70
2023/09/13 13:00:20;;;;;;;3.28;2.10;;;;;;;23.20;59.43;100676.34;4917665;29;20164;-69
2023/09/13 13:03:28;;;;;;;5.70;2.55;;;;;;;22.85;60.88;100680.75;4917498;29;20047;-69
2023/09/13 13:06:37;;;;;;;5.43;2.10;;;;;;;22.81;58.36;100671.38;4917835;29;20443;-70
2023/09/13 13:09:40;;;;;;;5.75;2.22;;;;;;;22.66;57.48;100672.94;4917278;29;20083;-68
2023/09/13 13:12:43;;;;;;;3.38;1.83;;;;;;;23.01;57.48;100679.22;4917456;29;20096;-68
2023/09/13 13:15:46;;;;;;;5.38;2.30;;;;;;;23.08;57.88;100682.94;4917335;29;20414;-69
2023/09/13 13:18:52;;;;;;;4.75;2.25;;;;;;;23.22;57.87;100674.31;4917086;29;20087;-70
2023/09/13 13:21:57;;;;;;;5.47;2.00;;;;;;;24.65;53.62;100676.06;4917700;29;20054;-69
2023/09/13 13:25:00;;;;;;;4.10;2.03;;;;;;;23.36;57.98;100675.59;4917267;29;20055;-69
2023/09/13 13:28:03;;;;;;;4.72;2.35;;;;;;;23.20;58.92;100673.66;4917281;29;20100;-68
2023/09/13 13:31:07;;;;;;;4.43;2.10;;;;;;;22.61;61.80;100677.91;4916002;29;20054;-68
2023/09/13 13:34:11;;;;;;;4.88;2.47;;;;;;;22.21;61.97;100692.53;4904231;29;20139;-68
2023/09/13 13:37:14;;;;;;;4.13;2.38;;;;;;;22.07;62.72;100696.50;4916794;29;20095;-72
2023/09/13 13:40:18;;;;;;;7.60;2.83;;;;;;;21.98;63.73;100695.56;4916908;29;20103;-69
2023/09/13 13:43:22;;;;;;;4.55;2.20;;;;;;;22.21;63.51;100697.88;4917126;29;20529;-70
2023/09/13 13:46:28;;;;;;;4.13;2.20;;;;;;;21.99;64.18;100697.28;4916571;29;20055;-68
2023/09/13 13:49:31;;;;;;;7.78;2.28;;;;;;;22.09;64.44;100691.06;4916550;29;20521;-69
2023/09/13 13:52:34;;;;;;;4.40;2.42;;;;;;;21.99;64.60;100686.63;4916511;29;20132;-69
2023/09/13 13:55:39;;;;;;;3.80;2.38;;;;;;;21.81;64.50;100680.44;4917026;29;20054;-69
2023/09/13 13:58:42;;;;;;;6.07;2.60;;;;;;;21.98;64.32;100682.25;4916582;29;20067;-70
2023/09/13 14:01:45;;;;;;;6.90;2.35;;;;;;;22.08;64.42;100684.91;4916713;29;20051;-70
2023/09/13 14:04:50;;;;;;;5.78;2.58;;;;;;;22.13;63.31;100687.09;4916764;29;20431;-69
2023/09/13 14:07:56;;;;;;;5.70;2.75;;;;;;;22.15;64.83;100675.31;4916921;29;20095;-69
2023/09/13 14:11:03;;;;;;;7.70;2.85;;;;;;;22.13;63.64;100687.09;4904002;29;20051;-69
2023/09/13 14:14:07;;;;;;;4.40;2.45;;;;;;;22.27;61.87;100683.91;4904801;29;20095;-68
2023/09/13 14:17:10;;;;;;;4.22;2.13;;;;;;;22.83;60.55;100680.06;4916626;29;20063;-69